sensor_id;sensor_type;location;lat;lon;timestamp;temperature;humidity
5592;DHT22;2818;49.790;9.958;2022-12-07T00:01:21;3.30;99.90
5592;DHT22;2818;49.790;9.958;2022-12-07T00:03:50;3.30;99.90
5592;DHT22;2818;49.790;9.958;2022-12-07T00:06:18;3.30;99.90
5592;DHT22;2818;49.790;9.958;2022-12-07T00:08:46;3.30;99.90
5592;DHT22;2818;49.790;9.958;2022-12-07T00:11:19;3.30;99.90
5592;DHT22;2818;49.790;9.958;2022-12-07T00:13:51;3.30;99.90
5592;DHT22;2818;49.790;9.958;2022-12-07T00:16:20;3.30;99.90
5592;DHT22;2818;49.790;9.958;2022-12-07T00:18:48;3.30;99.90
5592;DHT22;2818;49.790;9.958;2022-12-07T00:21:35;3.30;99.90
5592;DHT22;2818;49.790;9.958;2022-12-07T00:24:03;3.30;99.90
5592;DHT22;2818;49.790;9.958;2022-12-07T00:26:36;3.30;99.90
5592;DHT22;2818;49.790;9.958;2022-12-07T00:29:06;3.30;99.90
5592;DHT22;2818;49.790;9.958;2022-12-07T00:31:36;3.30;99.90
5592;DHT22;2818;49.790;9.958;2022-12-07T00:34:07;3.30;99.90
5592;DHT22;2818;49.790;9.958;2022-12-07T00:36:39;3.30;99.90
5592;DHT22;2818;49.790;9.958;2022-12-07T00:39:06;3.30;99.90
5592;DHT22;2818;49.790;9.958;2022-12-07T00:41:33;3.30;99.90
5592;DHT22;2818;49.790;9.958;2022-12-07T00:43:59;3.30;99.90
5592;DHT22;2818;49.790;9.958;2022-12-07T00:46:26;3.40;99.90
5592;DHT22;2818;49.790;9.958;2022-12-07T00:48:54;3.40;99.90
5592;DHT22;2818;49.790;9.958;2022-12-07T00:51:23;3.30;98.30
5592;DHT22;2818;49.790;9.958;2022-12-07T00:53:50;3.30;91.90
5592;DHT22;2818;49.790;9.958;2022-12-07T00:56:26;3.40;87.60
5592;DHT22;2818;49.790;9.958;2022-12-07T00:58:55;3.40;83.60
5592;DHT22;2818;49.790;9.958;2022-12-07T01:01:24;3.30;90.80
5592;DHT22;2818;49.790;9.958;2022-12-07T01:03:51;3.30;55.50
5592;DHT22;2818;49.790;9.958;2022-12-07T01:06:20;3.30;46.60
5592;DHT22;2818;49.790;9.958;2022-12-07T01:08:47;3.30;40.60
5592;DHT22;2818;49.790;9.958;2022-12-07T01:11:18;3.30;37.90
5592;DHT22;2818;49.790;9.958;2022-12-07T01:13:45;3.30;46.00
5592;DHT22;2818;49.790;9.958;2022-12-07T01:16:14;3.30;42.60
5592;DHT22;2818;49.790;9.958;2022-12-07T01:18:45;3.30;35.40
5592;DHT22;2818;49.790;9.958;2022-12-07T01:21:13;3.30;38.00
5592;DHT22;2818;49.790;9.958;2022-12-07T01:23:41;3.30;42.30
5592;DHT22;2818;49.790;9.958;2022-12-07T01:26:11;3.30;34.60
5592;DHT22;2818;49.790;9.958;2022-12-07T01:28:39;3.30;32.00
5592;DHT22;2818;49.790;9.958;2022-12-07T01:31:08;3.30;31.30
5592;DHT22;2818;49.790;9.958;2022-12-07T01:33:39;3.20;30.80
5592;DHT22;2818;49.790;9.958;2022-12-07T01:36:19;3.30;33.30
5592;DHT22;2818;49.790;9.958;2022-12-07T01:38:47;3.30;37.00
5592;DHT22;2818;49.790;9.958;2022-12-07T01:41:15;3.30;32.50
5592;DHT22;2818;49.790;9.958;2022-12-07T01:44:18;3.30;37.60
5592;DHT22;2818;49.790;9.958;2022-12-07T01:47:06;3.30;35.20
5592;DHT22;2818;49.790;9.958;2022-12-07T01:52:15;3.30;21.50
5592;DHT22;2818;49.790;9.958;2022-12-07T01:54:46;3.30;9.90
5592;DHT22;2818;49.790;9.958;2022-12-07T01:57:16;3.30;5.50
5592;DHT22;2818;49.790;9.958;2022-12-07T01:59:45;3.30;6.80
5592;DHT22;2818;49.790;9.958;2022-12-07T02:02:53;3.40;4.60
5592;DHT22;2818;49.790;9.958;2022-12-07T02:05:23;3.40;1.00
5592;DHT22;2818;49.790;9.958;2022-12-07T02:07:53;3.40;1.00
5592;DHT22;2818;49.790;9.958;2022-12-07T02:10:27;3.40;1.00
5592;DHT22;2818;49.790;9.958;2022-12-07T02:13:03;3.40;1.00
5592;DHT22;2818;49.790;9.958;2022-12-07T02:30:14;3.40;10.80
5592;DHT22;2818;49.790;9.958;2022-12-07T02:36:06;3.40;11.30
5592;DHT22;2818;49.790;9.958;2022-12-07T02:38:21;3.40;16.00
5592;DHT22;2818;49.790;9.958;2022-12-07T02:40:57;3.40;24.80
5592;DHT22;2818;49.790;9.958;2022-12-07T02:43:30;3.30;22.60
5592;DHT22;2818;49.790;9.958;2022-12-07T02:46:06;3.30;26.50
5592;DHT22;2818;49.790;9.958;2022-12-07T02:48:34;3.30;28.10
5592;DHT22;2818;49.790;9.958;2022-12-07T02:51:02;3.30;30.00
5592;DHT22;2818;49.790;9.958;2022-12-07T03:10:26;3.40;16.20
5592;DHT22;2818;49.790;9.958;2022-12-07T03:18:50;3.40;21.30
5592;DHT22;2818;49.790;9.958;2022-12-07T03:21:23;3.40;25.20
5592;DHT22;2818;49.790;9.958;2022-12-07T03:23:54;3.40;24.30
5592;DHT22;2818;49.790;9.958;2022-12-07T03:26:27;3.30;19.10
5592;DHT22;2818;49.790;9.958;2022-12-07T03:28:58;3.30;25.60
5592;DHT22;2818;49.790;9.958;2022-12-07T03:31:33;3.30;26.60
5592;DHT22;2818;49.790;9.958;2022-12-07T03:34:17;3.30;32.20
5592;DHT22;2818;49.790;9.958;2022-12-07T03:36:51;3.30;31.30
5592;DHT22;2818;49.790;9.958;2022-12-07T03:39:38;3.30;33.00
5592;DHT22;2818;49.790;9.958;2022-12-07T03:42:08;3.30;32.10
5592;DHT22;2818;49.790;9.958;2022-12-07T03:44:38;3.30;24.20
5592;DHT22;2818;49.790;9.958;2022-12-07T03:52:53;3.30;14.70
5592;DHT22;2818;49.790;9.958;2022-12-07T03:55:30;3.30;8.40
5592;DHT22;2818;49.790;9.958;2022-12-07T03:58:10;3.30;2.60
5592;DHT22;2818;49.790;9.958;2022-12-07T04:00:38;3.30;2.70
5592;DHT22;2818;49.790;9.958;2022-12-07T04:03:07;3.30;1.00
5592;DHT22;2818;49.790;9.958;2022-12-07T04:05:34;3.30;1.00
5592;DHT22;2818;49.790;9.958;2022-12-07T04:08:01;3.30;1.00
5592;DHT22;2818;49.790;9.958;2022-12-07T04:10:28;3.30;1.00
5592;DHT22;2818;49.790;9.958;2022-12-07T04:12:55;3.30;1.00
5592;DHT22;2818;49.790;9.958;2022-12-07T04:15:22;3.30;3.80
5592;DHT22;2818;49.790;9.958;2022-12-07T04:17:49;3.20;1.00
5592;DHT22;2818;49.790;9.958;2022-12-07T04:20:16;3.30;1.00
5592;DHT22;2818;49.790;9.958;2022-12-07T04:22:43;3.30;1.00
5592;DHT22;2818;49.790;9.958;2022-12-07T04:25:10;3.30;2.80
5592;DHT22;2818;49.790;9.958;2022-12-07T04:27:36;3.30;2.10
5592;DHT22;2818;49.790;9.958;2022-12-07T04:30:04;3.30;1.00
5592;DHT22;2818;49.790;9.958;2022-12-07T04:32:31;3.30;42.00
5592;DHT22;2818;49.790;9.958;2022-12-07T04:34:58;3.30;6.50
5592;DHT22;2818;49.790;9.958;2022-12-07T04:37:25;3.30;1.00
5592;DHT22;2818;49.790;9.958;2022-12-07T04:39:52;3.30;6.30
5592;DHT22;2818;49.790;9.958;2022-12-07T04:42:19;3.30;11.90
5592;DHT22;2818;49.790;9.958;2022-12-07T04:44:45;3.30;12.80
5592;DHT22;2818;49.790;9.958;2022-12-07T04:47:12;3.30;10.80
5592;DHT22;2818;49.790;9.958;2022-12-07T04:49:39;3.30;11.20
5592;DHT22;2818;49.790;9.958;2022-12-07T04:52:06;3.30;6.80
5592;DHT22;2818;49.790;9.958;2022-12-07T04:54:33;3.20;2.30
5592;DHT22;2818;49.790;9.958;2022-12-07T04:57:00;3.30;3.30
5592;DHT22;2818;49.790;9.958;2022-12-07T04:59:27;3.30;4.50
5592;DHT22;2818;49.790;9.958;2022-12-07T05:01:54;3.30;6.70
5592;DHT22;2818;49.790;9.958;2022-12-07T05:04:20;3.20;7.50
5592;DHT22;2818;49.790;9.958;2022-12-07T05:06:47;3.20;12.00
5592;DHT22;2818;49.790;9.958;2022-12-07T05:09:14;3.30;15.50
5592;DHT22;2818;49.790;9.958;2022-12-07T05:11:41;3.20;7.80
5592;DHT22;2818;49.790;9.958;2022-12-07T05:16:35;3.20;11.40
5592;DHT22;2818;49.790;9.958;2022-12-07T05:19:03;3.20;15.80
5592;DHT22;2818;49.790;9.958;2022-12-07T05:21:30;3.20;16.70
5592;DHT22;2818;49.790;9.958;2022-12-07T05:23:57;3.20;9.00
5592;DHT22;2818;49.790;9.958;2022-12-07T05:26:24;3.20;1.00
5592;DHT22;2818;49.790;9.958;2022-12-07T05:28:55;3.20;1.00
5592;DHT22;2818;49.790;9.958;2022-12-07T05:31:23;3.20;1.00
5592;DHT22;2818;49.790;9.958;2022-12-07T05:33:50;3.20;1.00
5592;DHT22;2818;49.790;9.958;2022-12-07T05:36:17;3.20;3.70
5592;DHT22;2818;49.790;9.958;2022-12-07T05:38:44;3.10;1.00
5592;DHT22;2818;49.790;9.958;2022-12-07T05:41:16;3.20;10.80
5592;DHT22;2818;49.790;9.958;2022-12-07T05:44:03;3.10;16.90
5592;DHT22;2818;49.790;9.958;2022-12-07T05:46:30;3.10;27.90
5592;DHT22;2818;49.790;9.958;2022-12-07T05:48:56;3.10;28.60
5592;DHT22;2818;49.790;9.958;2022-12-07T05:51:23;3.10;30.70
5592;DHT22;2818;49.790;9.958;2022-12-07T05:53:50;3.10;40.70
5592;DHT22;2818;49.790;9.958;2022-12-07T05:56:17;3.10;43.40
5592;DHT22;2818;49.790;9.958;2022-12-07T05:58:44;3.00;45.30
5592;DHT22;2818;49.790;9.958;2022-12-07T06:01:30;3.00;58.80
5592;DHT22;2818;49.790;9.958;2022-12-07T06:03:57;3.00;63.90
5592;DHT22;2818;49.790;9.958;2022-12-07T06:06:23;3.00;72.00
5592;DHT22;2818;49.790;9.958;2022-12-07T06:08:50;3.00;79.70
5592;DHT22;2818;49.790;9.958;2022-12-07T06:11:17;3.00;88.40
5592;DHT22;2818;49.790;9.958;2022-12-07T06:14:03;3.10;90.90
5592;DHT22;2818;49.790;9.958;2022-12-07T06:16:30;3.10;87.90
5592;DHT22;2818;49.790;9.958;2022-12-07T06:18:57;3.10;93.10
5592;DHT22;2818;49.790;9.958;2022-12-07T06:21:24;3.10;91.80
5592;DHT22;2818;49.790;9.958;2022-12-07T06:23:53;3.10;93.90
5592;DHT22;2818;49.790;9.958;2022-12-07T06:26:20;3.10;99.70
5592;DHT22;2818;49.790;9.958;2022-12-07T06:28:47;3.10;99.90
5592;DHT22;2818;49.790;9.958;2022-12-07T06:31:14;3.10;99.90
5592;DHT22;2818;49.790;9.958;2022-12-07T06:33:41;3.10;99.90
5592;DHT22;2818;49.790;9.958;2022-12-07T06:36:09;3.10;99.90
5592;DHT22;2818;49.790;9.958;2022-12-07T06:38:36;3.10;99.90
5592;DHT22;2818;49.790;9.958;2022-12-07T06:41:03;3.10;99.90
5592;DHT22;2818;49.790;9.958;2022-12-07T06:43:30;3.10;99.90
5592;DHT22;2818;49.790;9.958;2022-12-07T06:45:57;3.10;99.90
5592;DHT22;2818;49.790;9.958;2022-12-07T06:48:24;3.10;99.90
5592;DHT22;2818;49.790;9.958;2022-12-07T06:50:51;3.10;99.90
5592;DHT22;2818;49.790;9.958;2022-12-07T06:53:21;3.10;99.90
5592;DHT22;2818;49.790;9.958;2022-12-07T06:55:48;3.10;99.90
5592;DHT22;2818;49.790;9.958;2022-12-07T06:58:16;3.20;99.90
5592;DHT22;2818;49.790;9.958;2022-12-07T07:00:44;3.20;99.90
5592;DHT22;2818;49.790;9.958;2022-12-07T07:03:11;3.20;99.90
5592;DHT22;2818;49.790;9.958;2022-12-07T07:05:38;3.20;99.90
5592;DHT22;2818;49.790;9.958;2022-12-07T07:08:05;3.20;99.90
5592;DHT22;2818;49.790;9.958;2022-12-07T07:10:49;3.30;99.90
5592;DHT22;2818;49.790;9.958;2022-12-07T07:13:16;3.30;99.90
5592;DHT22;2818;49.790;9.958;2022-12-07T07:15:43;3.30;99.90
5592;DHT22;2818;49.790;9.958;2022-12-07T07:18:10;3.30;99.90
5592;DHT22;2818;49.790;9.958;2022-12-07T07:20:38;3.30;99.90
5592;DHT22;2818;49.790;9.958;2022-12-07T07:23:05;3.30;99.90
5592;DHT22;2818;49.790;9.958;2022-12-07T07:25:33;3.30;99.90
5592;DHT22;2818;49.790;9.958;2022-12-07T07:27:59;3.30;99.90
5592;DHT22;2818;49.790;9.958;2022-12-07T07:30:27;3.30;99.90
5592;DHT22;2818;49.790;9.958;2022-12-07T07:32:58;3.40;99.90
5592;DHT22;2818;49.790;9.958;2022-12-07T07:35:26;3.40;99.90
5592;DHT22;2818;49.790;9.958;2022-12-07T07:37:54;3.40;99.90
5592;DHT22;2818;49.790;9.958;2022-12-07T07:40:21;3.40;99.90
5592;DHT22;2818;49.790;9.958;2022-12-07T07:42:49;3.40;99.90
5592;DHT22;2818;49.790;9.958;2022-12-07T07:45:17;3.40;99.90
5592;DHT22;2818;49.790;9.958;2022-12-07T07:47:44;3.40;99.90
5592;DHT22;2818;49.790;9.958;2022-12-07T07:50:11;3.40;99.90
5592;DHT22;2818;49.790;9.958;2022-12-07T07:52:39;3.40;99.90
5592;DHT22;2818;49.790;9.958;2022-12-07T07:55:06;3.40;99.90
5592;DHT22;2818;49.790;9.958;2022-12-07T07:57:36;3.40;99.90
5592;DHT22;2818;49.790;9.958;2022-12-07T08:00:13;3.50;99.90
5592;DHT22;2818;49.790;9.958;2022-12-07T08:02:41;3.50;99.90
5592;DHT22;2818;49.790;9.958;2022-12-07T08:05:10;3.50;99.90
5592;DHT22;2818;49.790;9.958;2022-12-07T08:07:39;3.60;99.90
5592;DHT22;2818;49.790;9.958;2022-12-07T08:10:07;3.60;98.40
5592;DHT22;2818;49.790;9.958;2022-12-07T08:12:38;3.60;98.10
5592;DHT22;2818;49.790;9.958;2022-12-07T08:15:26;3.60;95.90
5592;DHT22;2818;49.790;9.958;2022-12-07T08:17:53;3.70;92.80
5592;DHT22;2818;49.790;9.958;2022-12-07T08:20:21;3.60;92.70
5592;DHT22;2818;49.790;9.958;2022-12-07T08:22:48;3.70;93.10
5592;DHT22;2818;49.790;9.958;2022-12-07T08:25:14;3.60;92.00
5592;DHT22;2818;49.790;9.958;2022-12-07T08:27:41;3.70;91.70
5592;DHT22;2818;49.790;9.958;2022-12-07T08:30:08;3.70;96.40
5592;DHT22;2818;49.790;9.958;2022-12-07T08:32:35;3.80;97.10
5592;DHT22;2818;49.790;9.958;2022-12-07T08:35:02;3.80;92.50
5592;DHT22;2818;49.790;9.958;2022-12-07T08:37:29;3.80;90.90
5592;DHT22;2818;49.790;9.958;2022-12-07T08:39:56;3.80;87.60
5592;DHT22;2818;49.790;9.958;2022-12-07T08:42:23;3.80;85.20
5592;DHT22;2818;49.790;9.958;2022-12-07T08:44:54;3.80;74.30
5592;DHT22;2818;49.790;9.958;2022-12-07T08:47:21;3.80;76.80
5592;DHT22;2818;49.790;9.958;2022-12-07T08:49:49;3.80;83.40
5592;DHT22;2818;49.790;9.958;2022-12-07T08:52:16;3.80;87.60
5592;DHT22;2818;49.790;9.958;2022-12-07T08:54:44;3.80;89.50
5592;DHT22;2818;49.790;9.958;2022-12-07T08:57:11;3.80;91.90
5592;DHT22;2818;49.790;9.958;2022-12-07T08:59:38;3.80;89.80
5592;DHT22;2818;49.790;9.958;2022-12-07T09:02:06;3.90;90.90
5592;DHT22;2818;49.790;9.958;2022-12-07T09:04:33;3.80;91.30
5592;DHT22;2818;49.790;9.958;2022-12-07T09:07:00;3.80;91.10
5592;DHT22;2818;49.790;9.958;2022-12-07T09:09:27;3.90;92.50
5592;DHT22;2818;49.790;9.958;2022-12-07T09:11:54;3.90;90.90
5592;DHT22;2818;49.790;9.958;2022-12-07T09:14:21;3.90;90.70
5592;DHT22;2818;49.790;9.958;2022-12-07T09:16:47;4.00;92.00
5592;DHT22;2818;49.790;9.958;2022-12-07T09:19:14;4.00;90.00
5592;DHT22;2818;49.790;9.958;2022-12-07T09:21:41;4.00;90.10
5592;DHT22;2818;49.790;9.958;2022-12-07T09:24:08;4.00;76.90
5592;DHT22;2818;49.790;9.958;2022-12-07T09:26:35;4.10;86.80
5592;DHT22;2818;49.790;9.958;2022-12-07T09:29:02;4.10;80.80
5592;DHT22;2818;49.790;9.958;2022-12-07T09:31:29;4.10;83.90
5592;DHT22;2818;49.790;9.958;2022-12-07T09:33:58;4.20;76.60
5592;DHT22;2818;49.790;9.958;2022-12-07T09:36:27;4.20;76.50
5592;DHT22;2818;49.790;9.958;2022-12-07T09:38:55;4.20;55.40
5592;DHT22;2818;49.790;9.958;2022-12-07T09:41:23;4.20;58.40
5592;DHT22;2818;49.790;9.958;2022-12-07T09:43:51;4.30;54.00
5592;DHT22;2818;49.790;9.958;2022-12-07T09:46:21;4.30;48.70
5592;DHT22;2818;49.790;9.958;2022-12-07T09:48:49;4.40;42.20
5592;DHT22;2818;49.790;9.958;2022-12-07T09:51:19;4.40;36.30
5592;DHT22;2818;49.790;9.958;2022-12-07T09:53:51;4.40;33.00
5592;DHT22;2818;49.790;9.958;2022-12-07T09:56:20;4.60;29.40
5592;DHT22;2818;49.790;9.958;2022-12-07T09:58:48;4.60;23.90
5592;DHT22;2818;49.790;9.958;2022-12-07T10:01:18;4.70;7.80
5592;DHT22;2818;49.790;9.958;2022-12-07T10:06:17;4.70;1.00
5592;DHT22;2818;49.790;9.958;2022-12-07T10:08:44;4.80;1.00
5592;DHT22;2818;49.790;9.958;2022-12-07T10:11:11;4.80;1.00
5592;DHT22;2818;49.790;9.958;2022-12-07T10:13:43;4.80;1.00
5592;DHT22;2818;49.790;9.958;2022-12-07T10:18:51;4.90;1.00
5592;DHT22;2818;49.790;9.958;2022-12-07T10:21:21;4.90;1.00
5592;DHT22;2818;49.790;9.958;2022-12-07T10:24:14;4.90;1.00
5592;DHT22;2818;49.790;9.958;2022-12-07T10:26:50;4.80;1.00
5592;DHT22;2818;49.790;9.958;2022-12-07T10:29:27;4.80;1.00
5592;DHT22;2818;49.790;9.958;2022-12-07T10:32:42;4.80;1.00
5592;DHT22;2818;49.790;9.958;2022-12-07T10:34:49;4.80;1.00
5592;DHT22;2818;49.790;9.958;2022-12-07T10:37:19;4.80;1.00
5592;DHT22;2818;49.790;9.958;2022-12-07T10:39:55;4.90;1.00
5592;DHT22;2818;49.790;9.958;2022-12-07T10:45:15;4.90;1.00
5592;DHT22;2818;49.790;9.958;2022-12-07T10:47:55;5.00;1.00
5592;DHT22;2818;49.790;9.958;2022-12-07T10:59:46;5.00;1.00
5592;DHT22;2818;49.790;9.958;2022-12-07T11:13:19;4.80;1.00
5592;DHT22;2818;49.790;9.958;2022-12-07T11:24:46;5.00;1.00
5592;DHT22;2818;49.790;9.958;2022-12-07T11:36:12;5.60;1.00
5592;DHT22;2818;49.790;9.958;2022-12-07T11:38:52;5.90;99.90
5592;DHT22;2818;49.790;9.958;2022-12-07T11:41:23;6.10;1.00
5592;DHT22;2818;49.790;9.958;2022-12-07T11:44:17;6.10;1.80
5592;DHT22;2818;49.790;9.958;2022-12-07T11:47:01;6.40;22.60
5592;DHT22;2818;49.790;9.958;2022-12-07T11:52:48;6.30;1.00
5592;DHT22;2818;49.790;9.958;2022-12-07T12:03:53;5.80;1.00
5592;DHT22;2818;49.790;9.958;2022-12-07T12:06:23;5.70;1.00
5592;DHT22;2818;49.790;9.958;2022-12-07T12:08:53;5.70;99.90
5592;DHT22;2818;49.790;9.958;2022-12-07T12:18:12;5.80;99.90
5592;DHT22;2818;49.790;9.958;2022-12-07T12:21:25;5.80;99.90
5592;DHT22;2818;49.790;9.958;2022-12-07T12:26:31;5.70;99.90
5592;DHT22;2818;49.790;9.958;2022-12-07T12:29:01;5.80;99.90
5592;DHT22;2818;49.790;9.958;2022-12-07T12:31:33;5.80;99.90
5592;DHT22;2818;49.790;9.958;2022-12-07T12:37:39;5.90;12.20
5592;DHT22;2818;49.790;9.958;2022-12-07T12:45:40;6.10;99.90
5592;DHT22;2818;49.790;9.958;2022-12-07T12:48:37;6.40;99.90
5592;DHT22;2818;49.790;9.958;2022-12-07T12:51:35;6.40;1.00
5592;DHT22;2818;49.790;9.958;2022-12-07T12:54:12;6.20;1.00
5592;DHT22;2818;49.790;9.958;2022-12-07T13:01:53;5.90;99.90
5592;DHT22;2818;49.790;9.958;2022-12-07T13:04:34;5.80;1.00
5592;DHT22;2818;49.790;9.958;2022-12-07T13:07:07;5.60;1.00
5592;DHT22;2818;49.790;9.958;2022-12-07T13:09:35;5.50;1.00
5592;DHT22;2818;49.790;9.958;2022-12-07T13:12:05;5.40;1.00
5592;DHT22;2818;49.790;9.958;2022-12-07T13:14:39;5.30;1.00
5592;DHT22;2818;49.790;9.958;2022-12-07T13:20:05;5.10;1.00
5592;DHT22;2818;49.790;9.958;2022-12-07T13:22:46;5.10;1.00
5592;DHT22;2818;49.790;9.958;2022-12-07T13:25:28;5.00;1.00
5592;DHT22;2818;49.790;9.958;2022-12-07T13:28:18;4.90;1.00
5592;DHT22;2818;49.790;9.958;2022-12-07T13:33:18;4.90;1.00
5592;DHT22;2818;49.790;9.958;2022-12-07T13:35:46;5.00;1.00
5592;DHT22;2818;49.790;9.958;2022-12-07T13:38:29;5.00;1.00
5592;DHT22;2818;49.790;9.958;2022-12-07T13:43:51;5.10;1.00
5592;DHT22;2818;49.790;9.958;2022-12-07T13:46:26;5.20;1.00
5592;DHT22;2818;49.790;9.958;2022-12-07T13:48:54;5.20;1.00
5592;DHT22;2818;49.790;9.958;2022-12-07T13:51:25;5.30;1.00
5592;DHT22;2818;49.790;9.958;2022-12-07T13:54:00;5.40;1.00
5592;DHT22;2818;49.790;9.958;2022-12-07T13:56:33;5.50;1.00
5592;DHT22;2818;49.790;9.958;2022-12-07T13:59:01;5.70;1.00
5592;DHT22;2818;49.790;9.958;2022-12-07T14:01:31;5.80;1.00
5592;DHT22;2818;49.790;9.958;2022-12-07T14:06:54;5.90;1.00
5592;DHT22;2818;49.790;9.958;2022-12-07T14:09:24;5.90;1.00
5592;DHT22;2818;49.790;9.958;2022-12-07T14:11:53;5.90;1.00
5592;DHT22;2818;49.790;9.958;2022-12-07T14:14:30;5.90;1.00
5592;DHT22;2818;49.790;9.958;2022-12-07T14:17:18;5.80;1.00
5592;DHT22;2818;49.790;9.958;2022-12-07T14:19:50;5.80;1.00
5592;DHT22;2818;49.790;9.958;2022-12-07T14:22:31;5.80;1.00
5592;DHT22;2818;49.790;9.958;2022-12-07T14:27:39;5.80;1.00
5592;DHT22;2818;49.790;9.958;2022-12-07T14:30:16;5.80;1.00
5592;DHT22;2818;49.790;9.958;2022-12-07T14:32:44;5.80;1.00
5592;DHT22;2818;49.790;9.958;2022-12-07T14:35:16;5.70;1.00
5592;DHT22;2818;49.790;9.958;2022-12-07T14:37:47;5.60;1.00
5592;DHT22;2818;49.790;9.958;2022-12-07T14:40:26;5.60;1.00
5592;DHT22;2818;49.790;9.958;2022-12-07T14:43:06;5.50;1.00
5592;DHT22;2818;49.790;9.958;2022-12-07T14:45:35;5.50;1.00
5592;DHT22;2818;49.790;9.958;2022-12-07T14:48:02;5.40;1.00
5592;DHT22;2818;49.790;9.958;2022-12-07T14:50:52;5.40;1.00
5592;DHT22;2818;49.790;9.958;2022-12-07T14:53:44;5.20;1.00
5592;DHT22;2818;49.790;9.958;2022-12-07T14:56:18;5.10;1.00
5592;DHT22;2818;49.790;9.958;2022-12-07T14:58:45;5.00;1.00
5592;DHT22;2818;49.790;9.958;2022-12-07T15:01:14;5.00;1.00
5592;DHT22;2818;49.790;9.958;2022-12-07T15:03:41;4.90;1.00
5592;DHT22;2818;49.790;9.958;2022-12-07T15:06:16;4.90;1.00
5592;DHT22;2818;49.790;9.958;2022-12-07T15:08:43;4.80;1.00
5592;DHT22;2818;49.790;9.958;2022-12-07T15:11:15;4.70;1.00
5592;DHT22;2818;49.790;9.958;2022-12-07T15:13:43;4.70;1.00
5592;DHT22;2818;49.790;9.958;2022-12-07T15:16:28;4.70;1.00
5592;DHT22;2818;49.790;9.958;2022-12-07T15:19:18;4.60;1.00
5592;DHT22;2818;49.790;9.958;2022-12-07T15:21:54;4.50;1.00
5592;DHT22;2818;49.790;9.958;2022-12-07T15:24:21;4.50;1.00
5592;DHT22;2818;49.790;9.958;2022-12-07T15:26:50;4.50;1.00
5592;DHT22;2818;49.790;9.958;2022-12-07T15:29:18;4.50;1.00
5592;DHT22;2818;49.790;9.958;2022-12-07T15:31:52;4.50;1.00
5592;DHT22;2818;49.790;9.958;2022-12-07T15:34:27;4.50;1.00
5592;DHT22;2818;49.790;9.958;2022-12-07T15:37:03;4.50;1.00
5592;DHT22;2818;49.790;9.958;2022-12-07T15:39:30;4.50;1.00
5592;DHT22;2818;49.790;9.958;2022-12-07T15:41:57;4.50;1.00
5592;DHT22;2818;49.790;9.958;2022-12-07T15:44:24;4.40;1.00
5592;DHT22;2818;49.790;9.958;2022-12-07T15:47:09;4.40;1.00
5592;DHT22;2818;49.790;9.958;2022-12-07T15:49:36;4.40;1.00
5592;DHT22;2818;49.790;9.958;2022-12-07T15:52:03;4.40;1.00
5592;DHT22;2818;49.790;9.958;2022-12-07T15:54:30;4.40;1.00
5592;DHT22;2818;49.790;9.958;2022-12-07T15:56:59;4.40;1.00
5592;DHT22;2818;49.790;9.958;2022-12-07T15:59:27;4.40;1.00
5592;DHT22;2818;49.790;9.958;2022-12-07T16:01:55;4.40;1.00
5592;DHT22;2818;49.790;9.958;2022-12-07T16:04:22;4.40;1.00
5592;DHT22;2818;49.790;9.958;2022-12-07T16:06:49;4.40;1.00
5592;DHT22;2818;49.790;9.958;2022-12-07T16:09:18;4.40;1.00
5592;DHT22;2818;49.790;9.958;2022-12-07T16:11:45;4.40;1.00
5592;DHT22;2818;49.790;9.958;2022-12-07T16:14:12;4.40;1.00
5592;DHT22;2818;49.790;9.958;2022-12-07T16:16:39;4.30;1.00
5592;DHT22;2818;49.790;9.958;2022-12-07T16:19:07;4.30;12.50
5592;DHT22;2818;49.790;9.958;2022-12-07T16:21:35;4.30;49.80
5592;DHT22;2818;49.790;9.958;2022-12-07T16:24:02;4.20;99.90
5592;DHT22;2818;49.790;9.958;2022-12-07T16:26:29;4.00;97.20
5592;DHT22;2818;49.790;9.958;2022-12-07T16:28:57;3.90;99.90
5592;DHT22;2818;49.790;9.958;2022-12-07T16:31:26;3.70;96.50
5592;DHT22;2818;49.790;9.958;2022-12-07T16:33:55;3.60;99.90
5592;DHT22;2818;49.790;9.958;2022-12-07T16:36:23;3.60;99.90
5592;DHT22;2818;49.790;9.958;2022-12-07T16:39:11;3.60;99.90
5592;DHT22;2818;49.790;9.958;2022-12-07T16:41:38;3.50;99.90
5592;DHT22;2818;49.790;9.958;2022-12-07T16:44:06;3.50;99.90
5592;DHT22;2818;49.790;9.958;2022-12-07T16:46:34;3.50;99.90
5592;DHT22;2818;49.790;9.958;2022-12-07T16:49:03;3.50;99.90
5592;DHT22;2818;49.790;9.958;2022-12-07T16:51:31;3.50;99.90
5592;DHT22;2818;49.790;9.958;2022-12-07T16:53:58;3.40;99.90
5592;DHT22;2818;49.790;9.958;2022-12-07T16:56:25;3.50;99.90
5592;DHT22;2818;49.790;9.958;2022-12-07T16:58:53;3.50;99.90
5592;DHT22;2818;49.790;9.958;2022-12-07T17:01:22;3.50;99.90
5592;DHT22;2818;49.790;9.958;2022-12-07T17:03:49;3.50;99.90
5592;DHT22;2818;49.790;9.958;2022-12-07T17:06:19;3.50;99.90
5592;DHT22;2818;49.790;9.958;2022-12-07T17:08:47;3.50;99.90
5592;DHT22;2818;49.790;9.958;2022-12-07T17:11:16;3.50;99.90
5592;DHT22;2818;49.790;9.958;2022-12-07T17:13:44;3.50;99.90
5592;DHT22;2818;49.790;9.958;2022-12-07T17:16:30;3.50;99.90
5592;DHT22;2818;49.790;9.958;2022-12-07T17:18:57;3.50;99.90
5592;DHT22;2818;49.790;9.958;2022-12-07T17:21:24;3.50;99.90
5592;DHT22;2818;49.790;9.958;2022-12-07T17:23:52;3.50;99.90
5592;DHT22;2818;49.790;9.958;2022-12-07T17:26:22;3.50;99.90
5592;DHT22;2818;49.790;9.958;2022-12-07T17:28:49;3.50;99.90
5592;DHT22;2818;49.790;9.958;2022-12-07T17:31:18;3.50;99.90
5592;DHT22;2818;49.790;9.958;2022-12-07T17:33:46;3.50;99.90
5592;DHT22;2818;49.790;9.958;2022-12-07T17:36:15;3.50;99.90
5592;DHT22;2818;49.790;9.958;2022-12-07T17:38:42;3.50;99.90
5592;DHT22;2818;49.790;9.958;2022-12-07T17:41:20;3.50;99.90
5592;DHT22;2818;49.790;9.958;2022-12-07T17:44:09;3.50;99.90
5592;DHT22;2818;49.790;9.958;2022-12-07T17:46:36;3.50;99.90
5592;DHT22;2818;49.790;9.958;2022-12-07T17:49:04;3.50;99.90
5592;DHT22;2818;49.790;9.958;2022-12-07T17:51:31;3.50;99.90
5592;DHT22;2818;49.790;9.958;2022-12-07T17:54:17;3.50;99.90
5592;DHT22;2818;49.790;9.958;2022-12-07T17:56:44;3.50;99.90
5592;DHT22;2818;49.790;9.958;2022-12-07T17:59:11;3.50;99.90
5592;DHT22;2818;49.790;9.958;2022-12-07T18:01:39;3.50;99.90
5592;DHT22;2818;49.790;9.958;2022-12-07T18:04:06;3.50;99.90
5592;DHT22;2818;49.790;9.958;2022-12-07T18:06:34;3.50;99.90
5592;DHT22;2818;49.790;9.958;2022-12-07T18:09:02;3.50;99.90
5592;DHT22;2818;49.790;9.958;2022-12-07T18:11:29;3.50;99.90
5592;DHT22;2818;49.790;9.958;2022-12-07T18:13:56;3.50;99.90
5592;DHT22;2818;49.790;9.958;2022-12-07T18:16:25;3.60;99.90
5592;DHT22;2818;49.790;9.958;2022-12-07T18:18:53;3.60;99.90
5592;DHT22;2818;49.790;9.958;2022-12-07T18:21:24;3.60;99.90
5592;DHT22;2818;49.790;9.958;2022-12-07T18:23:53;3.60;99.90
5592;DHT22;2818;49.790;9.958;2022-12-07T18:26:22;3.60;99.90
5592;DHT22;2818;49.790;9.958;2022-12-07T18:28:49;3.50;99.90
5592;DHT22;2818;49.790;9.958;2022-12-07T18:31:17;3.50;99.90
5592;DHT22;2818;49.790;9.958;2022-12-07T18:33:45;3.50;99.90
5592;DHT22;2818;49.790;9.958;2022-12-07T18:36:13;3.50;99.90
5592;DHT22;2818;49.790;9.958;2022-12-07T18:38:40;3.50;99.90
5592;DHT22;2818;49.790;9.958;2022-12-07T18:41:08;3.40;99.90
5592;DHT22;2818;49.790;9.958;2022-12-07T18:43:37;3.50;99.90
5592;DHT22;2818;49.790;9.958;2022-12-07T18:46:18;3.50;99.90
5592;DHT22;2818;49.790;9.958;2022-12-07T18:48:46;3.50;99.90
5592;DHT22;2818;49.790;9.958;2022-12-07T18:51:14;3.50;99.90
5592;DHT22;2818;49.790;9.958;2022-12-07T18:53:42;3.50;99.90
5592;DHT22;2818;49.790;9.958;2022-12-07T18:58:42;3.50;99.90
5592;DHT22;2818;49.790;9.958;2022-12-07T19:01:31;3.50;99.90
5592;DHT22;2818;49.790;9.958;2022-12-07T19:03:58;3.50;99.90
5592;DHT22;2818;49.790;9.958;2022-12-07T19:06:25;3.50;99.90
5592;DHT22;2818;49.790;9.958;2022-12-07T19:08:53;3.50;99.90
5592;DHT22;2818;49.790;9.958;2022-12-07T19:11:26;3.50;99.90
5592;DHT22;2818;49.790;9.958;2022-12-07T19:14:13;3.50;99.90
5592;DHT22;2818;49.790;9.958;2022-12-07T19:16:42;3.50;99.90